sensor_id;sensor_type;location;lat;lon;timestamp;temperature;humidity
72646;DHT22;60687;53.876;10.674;2023-07-16T00:05:30;21.80;70.80
72646;DHT22;60687;53.876;10.674;2023-07-16T00:15:34;21.70;72.30
72646;DHT22;60687;53.876;10.674;2023-07-16T00:25:36;21.50;73.90
72646;DHT22;60687;53.876;10.674;2023-07-16T00:35:46;21.40;73.80
72646;DHT22;60687;53.876;10.674;2023-07-16T00:45:49;21.30;77.00
72646;DHT22;60687;53.876;10.674;2023-07-16T00:55:53;21.10;76.60
72646;DHT22;60687;53.876;10.674;2023-07-16T01:06:00;21.10;77.50
72646;DHT22;60687;53.876;10.674;2023-07-16T01:16:06;20.90;77.90
72646;DHT22;60687;53.876;10.674;2023-07-16T01:26:25;20.70;79.00
72646;DHT22;60687;53.876;10.674;2023-07-16T01:36:31;20.60;79.90
72646;DHT22;60687;53.876;10.674;2023-07-16T01:46:35;20.50;79.90
72646;DHT22;60687;53.876;10.674;2023-07-16T01:56:40;20.50;79.70
72646;DHT22;60687;53.876;10.674;2023-07-16T02:06:43;20.50;80.30
72646;DHT22;60687;53.876;10.674;2023-07-16T02:16:47;20.40;79.80
72646;DHT22;60687;53.876;10.674;2023-07-16T02:26:49;20.30;80.90
72646;DHT22;60687;53.876;10.674;2023-07-16T02:36:53;20.30;81.10
72646;DHT22;60687;53.876;10.674;2023-07-16T02:46:55;20.30;82.20
72646;DHT22;60687;53.876;10.674;2023-07-16T02:56:59;20.20;85.00
72646;DHT22;60687;53.876;10.674;2023-07-16T03:07:02;20.10;85.80
72646;DHT22;60687;53.876;10.674;2023-07-16T03:17:06;19.90;85.90
72646;DHT22;60687;53.876;10.674;2023-07-16T03:27:08;19.80;87.70
72646;DHT22;60687;53.876;10.674;2023-07-16T03:37:13;19.80;87.00
72646;DHT22;60687;53.876;10.674;2023-07-16T03:47:15;19.70;88.00
72646;DHT22;60687;53.876;10.674;2023-07-16T03:57:19;19.60;89.10
72646;DHT22;60687;53.876;10.674;2023-07-16T04:07:22;19.60;88.20
72646;DHT22;60687;53.876;10.674;2023-07-16T04:17:26;19.50;89.30
72646;DHT22;60687;53.876;10.674;2023-07-16T04:27:28;19.50;89.00
72646;DHT22;60687;53.876;10.674;2023-07-16T04:37:32;19.40;88.50
72646;DHT22;60687;53.876;10.674;2023-07-16T04:47:34;19.40;89.60
72646;DHT22;60687;53.876;10.674;2023-07-16T04:57:39;19.40;89.70
72646;DHT22;60687;53.876;10.674;2023-07-16T05:07:42;19.30;90.10
72646;DHT22;60687;53.876;10.674;2023-07-16T05:17:46;19.30;90.50
72646;DHT22;60687;53.876;10.674;2023-07-16T05:27:49;19.30;90.60
72646;DHT22;60687;53.876;10.674;2023-07-16T05:37:52;19.30;90.80
72646;DHT22;60687;53.876;10.674;2023-07-16T05:47:55;19.40;90.70
72646;DHT22;60687;53.876;10.674;2023-07-16T05:57:58;19.60;90.90
72646;DHT22;60687;53.876;10.674;2023-07-16T06:08:01;19.70;90.70
72646;DHT22;60687;53.876;10.674;2023-07-16T06:18:05;19.90;89.70
72646;DHT22;60687;53.876;10.674;2023-07-16T06:28:07;20.10;86.80
72646;DHT22;60687;53.876;10.674;2023-07-16T06:38:11;20.40;84.50
72646;DHT22;60687;53.876;10.674;2023-07-16T06:48:13;20.70;82.10
72646;DHT22;60687;53.876;10.674;2023-07-16T06:58:17;20.90;78.90
72646;DHT22;60687;53.876;10.674;2023-07-16T07:08:19;21.10;77.00
72646;DHT22;60687;53.876;10.674;2023-07-16T07:18:24;21.40;74.50
72646;DHT22;60687;53.876;10.674;2023-07-16T07:28:27;21.70;71.50
72646;DHT22;60687;53.876;10.674;2023-07-16T07:38:31;22.00;68.40
72646;DHT22;60687;53.876;10.674;2023-07-16T07:48:33;22.30;63.50
72646;DHT22;60687;53.876;10.674;2023-07-16T07:58:37;22.50;56.90
72646;DHT22;60687;53.876;10.674;2023-07-16T08:08:39;22.40;55.10
72646;DHT22;60687;53.876;10.674;2023-07-16T08:18:43;22.40;56.80
72646;DHT22;60687;53.876;10.674;2023-07-16T08:28:46;22.30;56.90
72646;DHT22;60687;53.876;10.674;2023-07-16T08:49:54;22.60;52.80
72646;DHT22;60687;53.876;10.674;2023-07-16T08:59:57;22.70;52.80
72646;DHT22;60687;53.876;10.674;2023-07-16T09:10:01;22.90;53.00
72646;DHT22;60687;53.876;10.674;2023-07-16T09:20:05;23.10;53.30
72646;DHT22;60687;53.876;10.674;2023-07-16T09:30:16;23.30;50.30
72646;DHT22;60687;53.876;10.674;2023-07-16T09:40:18;23.50;47.60
72646;DHT22;60687;53.876;10.674;2023-07-16T09:50:23;23.60;48.70
72646;DHT22;60687;53.876;10.674;2023-07-16T10:00:27;23.60;49.00
72646;DHT22;60687;53.876;10.674;2023-07-16T10:10:40;23.60;47.90
72646;DHT22;60687;53.876;10.674;2023-07-16T10:20:43;23.60;45.00
72646;DHT22;60687;53.876;10.674;2023-07-16T10:30:51;23.60;45.80
72646;DHT22;60687;53.876;10.674;2023-07-16T10:40:53;23.60;45.20
72646;DHT22;60687;53.876;10.674;2023-07-16T10:50:57;23.70;45.00
72646;DHT22;60687;53.876;10.674;2023-07-16T11:01:00;23.60;45.10
72646;DHT22;60687;53.876;10.674;2023-07-16T11:11:03;23.50;45.20
72646;DHT22;60687;53.876;10.674;2023-07-16T11:21:07;23.70;45.10
72646;DHT22;60687;53.876;10.674;2023-07-16T11:31:15;23.60;44.30
72646;DHT22;60687;53.876;10.674;2023-07-16T11:41:20;23.60;45.20
72646;DHT22;60687;53.876;10.674;2023-07-16T11:51:24;23.90;44.80
72646;DHT22;60687;53.876;10.674;2023-07-16T12:01:26;24.00;44.20
72646;DHT22;60687;53.876;10.674;2023-07-16T12:11:30;24.20;43.90
72646;DHT22;60687;53.876;10.674;2023-07-16T12:21:32;24.30;42.50
72646;DHT22;60687;53.876;10.674;2023-07-16T12:31:36;24.30;43.20
72646;DHT22;60687;53.876;10.674;2023-07-16T12:41:39;24.40;41.70
72646;DHT22;60687;53.876;10.674;2023-07-16T12:51:43;24.40;42.00
72646;DHT22;60687;53.876;10.674;2023-07-16T13:01:45;24.50;41.20
72646;DHT22;60687;53.876;10.674;2023-07-16T13:11:49;24.50;41.90
72646;DHT22;60687;53.876;10.674;2023-07-16T13:21:51;24.40;41.60
72646;DHT22;60687;53.876;10.674;2023-07-16T13:31:55;24.20;42.40
72646;DHT22;60687;53.876;10.674;2023-07-16T13:41:57;24.30;43.00
72646;DHT22;60687;53.876;10.674;2023-07-16T13:52:01;24.40;42.30
72646;DHT22;60687;53.876;10.674;2023-07-16T14:02:04;24.30;41.90
72646;DHT22;60687;53.876;10.674;2023-07-16T14:12:08;24.40;42.60
72646;DHT22;60687;53.876;10.674;2023-07-16T14:22:10;24.40;42.50
72646;DHT22;60687;53.876;10.674;2023-07-16T14:32:15;24.40;42.60
72646;DHT22;60687;53.876;10.674;2023-07-16T14:42:17;24.20;42.60
72646;DHT22;60687;53.876;10.674;2023-07-16T14:52:21;24.20;43.20
72646;DHT22;60687;53.876;10.674;2023-07-16T15:02:24;24.30;43.10
72646;DHT22;60687;53.876;10.674;2023-07-16T15:12:28;24.40;43.10
72646;DHT22;60687;53.876;10.674;2023-07-16T15:22:30;24.30;43.00
72646;DHT22;60687;53.876;10.674;2023-07-16T15:32:36;24.20;42.50
72646;DHT22;60687;53.876;10.674;2023-07-16T15:42:38;24.10;43.50
72646;DHT22;60687;53.876;10.674;2023-07-16T15:52:42;23.90;44.20
72646;DHT22;60687;53.876;10.674;2023-07-16T16:02:45;23.90;44.00
72646;DHT22;60687;53.876;10.674;2023-07-16T16:12:48;23.90;43.10
72646;DHT22;60687;53.876;10.674;2023-07-16T16:22:51;23.80;44.40
72646;DHT22;60687;53.876;10.674;2023-07-16T16:32:55;23.70;44.60
72646;DHT22;60687;53.876;10.674;2023-07-16T16:43:00;23.80;44.10
72646;DHT22;60687;53.876;10.674;2023-07-16T16:53:04;23.80;44.00
72646;DHT22;60687;53.876;10.674;2023-07-16T17:03:07;23.70;43.30
72646;DHT22;60687;53.876;10.674;2023-07-16T17:13:11;23.60;44.20
72646;DHT22;60687;53.876;10.674;2023-07-16T17:23:14;23.40;45.10
72646;DHT22;60687;53.876;10.674;2023-07-16T17:33:18;23.40;45.80
72646;DHT22;60687;53.876;10.674;2023-07-16T17:43:20;23.30;45.90
72646;DHT22;60687;53.876;10.674;2023-07-16T17:53:24;23.20;46.30
72646;DHT22;60687;53.876;10.674;2023-07-16T18:03:27;23.20;47.00
72646;DHT22;60687;53.876;10.674;2023-07-16T18:13:30;23.10;46.80
72646;DHT22;60687;53.876;10.674;2023-07-16T18:23:33;23.10;47.10
72646;DHT22;60687;53.876;10.674;2023-07-16T18:33:37;23.00;47.70
72646;DHT22;60687;53.876;10.674;2023-07-16T18:43:40;22.90;48.10
72646;DHT22;60687;53.876;10.674;2023-07-16T18:53:44;22.80;48.10
72646;DHT22;60687;53.876;10.674;2023-07-16T19:03:46;22.70;47.90
72646;DHT22;60687;53.876;10.674;2023-07-16T19:13:52;22.60;48.40
72646;DHT22;60687;53.876;10.674;2023-07-16T19:23:57;22.60;48.50
72646;DHT22;60687;53.876;10.674;2023-07-16T19:34:01;22.50;49.20
72646;DHT22;60687;53.876;10.674;2023-07-16T19:44:04;22.40;51.00
72646;DHT22;60687;53.876;10.674;2023-07-16T19:54:09;22.30;51.50
72646;DHT22;60687;53.876;10.674;2023-07-16T20:04:11;22.30;53.00
72646;DHT22;60687;53.876;10.674;2023-07-16T20:14:15;22.10;52.00
72646;DHT22;60687;53.876;10.674;2023-07-16T20:24:20;22.00;53.00
72646;DHT22;60687;53.876;10.674;2023-07-16T20:34:24;22.00;53.50
72646;DHT22;60687;53.876;10.674;2023-07-16T20:44:27;21.90;54.10
72646;DHT22;60687;53.876;10.674;2023-07-16T20:54:31;21.70;55.10
72646;DHT22;60687;53.876;10.674;2023-07-16T21:04:37;21.60;55.00
72646;DHT22;60687;53.876;10.674;2023-07-16T21:14:41;21.40;55.60
72646;DHT22;60687;53.876;10.674;2023-07-16T21:24:44;21.20;56.50
72646;DHT22;60687;53.876;10.674;2023-07-16T21:34:48;21.10;57.70
72646;DHT22;60687;53.876;10.674;2023-07-16T21:44:50;21.00;57.60
72646;DHT22;60687;53.876;10.674;2023-07-16T21:54:54;20.80;58.80
72646;DHT22;60687;53.876;10.674;2023-07-16T22:04:57;20.70;60.00
72646;DHT22;60687;53.876;10.674;2023-07-16T22:15:00;20.70;60.30
72646;DHT22;60687;53.876;10.674;2023-07-16T22:25:03;20.60;61.00
72646;DHT22;60687;53.876;10.674;2023-07-16T22:35:09;20.50;61.20
72646;DHT22;60687;53.876;10.674;2023-07-16T22:45:11;20.40;62.50
72646;DHT22;60687;53.876;10.674;2023-07-16T22:55:15;20.30;62.40
72646;DHT22;60687;53.876;10.674;2023-07-16T23:05:18;20.20;63.10
72646;DHT22;60687;53.876;10.674;2023-07-16T23:15:23;20.10;63.90
72646;DHT22;60687;53.876;10.674;2023-07-16T23:25:26;20.00;64.40
72646;DHT22;60687;53.876;10.674;2023-07-16T23:35:30;19.90;65.30
72646;DHT22;60687;53.876;10.674;2023-07-16T23:45:33;19.80;66.20
72646;DHT22;60687;53.876;10.674;2023-07-16T23:55:37;19.70;66.40
